Terminal Aerodrome Forecast
Issued by NWS Amarillo, TX

Home | Current Version | Previous Version | Text Only | Print | Product List | Glossary On
Versions: 1 2 3 4 5 6 7 8 9 10 11 12 13 14 15 16 17 18 19 20
000
FTUS44 KAMA 172300
TAFGUY
TAF
KGUY 172322Z 1800/1824 14009KT P6SM SCT040
     FM180800 18008KT 4SM BR SCT006
      TEMPO 1810/1814 2SM BR BKN005
     FM181600 19018KT P6SM SKC=

USA.gov is the U.S. government's official web portal to all federal, state and local government web resources and services.